Corsair — WDI5217 — position and weather

sailwx.info

Track history (hours):
 
Tides and Currents Weather Stations Pressure Air Temp Water Temp Dewpoint Dewpoint Depression Visibility Wind Speed Wind Dir Waves Ship Positions

Corsair

Owner: MIFC SHIPPING LLC, Saint Ignace, MI. More information available from US FCC via Universal Licensing System and Coast Guard Vessel Documentation Center.

Last reported at 2017-Nov-22 19:14 UTC. Time now 2017-Nov-24 11:29 UTC.
Position N 45°52' W 084°44'.

Length 28 m; draft 2.1 m.

Type: Cargo ship. MMSI: 367706320.

Date/timePositionNaut miles runAvg speedWind from/ knotsBaromVisibWave heightAir tempDewpointWater temp
2017-Nov-22 19:14N 45°52' W 084°44'  
2017-Nov-18 16:38N 45°51' W 084°39'1 0.5
2017-Nov-18 13:43N 45°51' W 084°37'0 0.2
2017-Nov-18 13:25N 45°51' W 084°37'4 0.2
2017-Nov-17 18:42N 45°52' W 084°42'1 2.0
2017-Nov-17 18:27N 45°51' W 084°42'4 3.5
2017-Nov-17 17:25N 45°51' W 084°37'4 8.1
2017-Nov-17 16:59N 45°51' W 084°42'0 0.0
2017-Nov-17 14:04N 45°51' W 084°42'1 8.0
2017-Nov-17 13:59N 45°51' W 084°41'3 5.0
2017-Nov-17 13:24N 45°51' W 084°37'1 1.8
2017-Nov-17 12:59N 45°51' W 084°38'3 3.9
2017-Nov-17 12:15N 45°51' W 084°42'0 0.0
2017-Nov-16 18:47N 45°52' W 084°42'2 7.7
2017-Nov-16 18:28N 45°51' W 084°38'1 1.9
2017-Nov-16 17:56N 45°51' W 084°37'3 6.3
2017-Nov-16 17:27N 45°52' W 084°41'1 0.2
2017-Nov-16 13:46N 45°51' W 084°41'2 7.4
2017-Nov-16 13:28N 45°51' W 084°38'1 2.1
2017-Nov-16 12:49N 45°51' W 084°39'2 2.4
2017-Nov-16 12:03N 45°51' W 084°42'1 0.1
2017-Nov-15 19:20N 45°52' W 084°43'3 8.4
2017-Nov-15 19:00N 45°51' W 084°39'2 2.7
2017-Nov-15 18:19N 45°51' W 084°37'3 7.7
2017-Nov-15 18:00N 45°51' W 084°40'1 0.3
2017-Nov-15 13:59N 45°51' W 084°42'4 3.9
2017-Nov-15 13:03N 45°51' W 084°37'2 7.3
2017-Nov-15 12:46N 45°51' W 084°40'2 3.1
2017-Nov-15 12:16N 45°51' W 084°42'1 0.0
2017-Nov-14 18:26N 45°52' W 084°42'2 3.6
2017-Nov-14 18:00N 45°51' W 084°40'3 1.4
2017-Nov-14 16:11N 45°51' W 084°37'2 8.5
2017-Nov-14 15:53N 45°51' W 084°40'1 1.4
2017-Nov-14 15:04N 45°51' W 084°42'1 8.3
2017-Nov-14 14:55N 45°51' W 084°40'2 5.3
2017-Nov-14 14:29N 45°51' W 084°37'0 0.0
2017-Nov-14 13:02N 45°51' W 084°37'0 4.1
2017-Nov-14 12:57N 45°51' W 084°37'4 4.0
2017-Nov-14 12:04N 45°51' W 084°42'  
Track history (hours):
 
Tides and Currents Weather Stations Pressure Air Temp Water Temp Dewpoint Dewpoint Depression Visibility Wind Speed Wind Dir Waves Ship Positions

Corsair

Owner: MIFC SHIPPING LLC, Saint Ignace, MI. More information available from US FCC via Universal Licensing System and Coast Guard Vessel Documentation Center.

Last reported at 2017-Nov-22 19:14 UTC. Time now 2017-Nov-24 11:29 UTC.
Position N 45°52' W 084°44'.

Length 28 m; draft 2.1 m.

Type: Cargo ship. MMSI: 367706320.

Date/timePositionNaut miles runAvg speedWind from/ knotsBaromVisibWave heightAir tempDewpointWater temp
2017-Nov-22 19:14N 45°52' W 084°44'  
2017-Nov-18 16:38N 45°51' W 084°39'1 0.5
2017-Nov-18 13:43N 45°51' W 084°37'0 0.2
2017-Nov-18 13:25N 45°51' W 084°37'4 0.2
2017-Nov-17 18:42N 45°52' W 084°42'1 2.0
2017-Nov-17 18:27N 45°51' W 084°42'4 3.5
2017-Nov-17 17:25N 45°51' W 084°37'4 8.1
2017-Nov-17 16:59N 45°51' W 084°42'0 0.0
2017-Nov-17 14:04N 45°51' W 084°42'1 8.0
2017-Nov-17 13:59N 45°51' W 084°41'3 5.0
2017-Nov-17 13:24N 45°51' W 084°37'1 1.8
2017-Nov-17 12:59N 45°51' W 084°38'3 3.9
2017-Nov-17 12:15N 45°51' W 084°42'0 0.0
2017-Nov-16 18:47N 45°52' W 084°42'2 7.7
2017-Nov-16 18:28N 45°51' W 084°38'1 1.9
2017-Nov-16 17:56N 45°51' W 084°37'3 6.3
2017-Nov-16 17:27N 45°52' W 084°41'1 0.2
2017-Nov-16 13:46N 45°51' W 084°41'2 7.4
2017-Nov-16 13:28N 45°51' W 084°38'1 2.1
2017-Nov-16 12:49N 45°51' W 084°39'2 2.4
2017-Nov-16 12:03N 45°51' W 084°42'1 0.1
2017-Nov-15 19:20N 45°52' W 084°43'3 8.4
2017-Nov-15 19:00N 45°51' W 084°39'2 2.7
2017-Nov-15 18:19N 45°51' W 084°37'3 7.7
2017-Nov-15 18:00N 45°51' W 084°40'1 0.3
2017-Nov-15 13:59N 45°51' W 084°42'4 3.9
2017-Nov-15 13:03N 45°51' W 084°37'2 7.3
2017-Nov-15 12:46N 45°51' W 084°40'2 3.1
2017-Nov-15 12:16N 45°51' W 084°42'1 0.0
2017-Nov-14 18:26N 45°52' W 084°42'2 3.6
2017-Nov-14 18:00N 45°51' W 084°40'3 1.4
2017-Nov-14 16:11N 45°51' W 084°37'2 8.5
2017-Nov-14 15:53N 45°51' W 084°40'1 1.4
2017-Nov-14 15:04N 45°51' W 084°42'1 8.3
2017-Nov-14 14:55N 45°51' W 084°40'2 5.3
2017-Nov-14 14:29N 45°51' W 084°37'0 0.0
2017-Nov-14 13:02N 45°51' W 084°37'0 4.1
2017-Nov-14 12:57N 45°51' W 084°37'4 4.0
2017-Nov-14 12:04N 45°51' W 084°42'  

Dump ship's entire track history